Time;durP1;ratioP1;P1;durP2;ratioP2;P2;SDS_P1;SDS_P2;PMS_P1;PMS_P2;Temp;Humidity;BMP_temperature;BMP_pressure;BME280_temperature;BME280_humidity;BME280_pressure;Samples;Min_cycle;Max_cycle;Signal;HPM_P1;HPM_P2
2023/01/17 00:01:07;;;;;;;;;;;;;;;3.45;94.89;98470.72;5099104;28;19920;-78
2023/01/17 00:03:33;;;;;;;;;;;;;;;3.46;95.33;98473.25;5098519;28;19965;-78
2023/01/17 00:11:26;;;;;;;;;;;;;;;3.48;96.00;98472.34;5098237;28;19927;-78
2023/01/17 00:13:51;;;;;;;;;;;;;;;3.50;95.92;98473.09;5098263;28;20215;-78
2023/01/17 00:16:17;;;;;;;;;;;;;;;3.52;95.96;98471.28;5098668;28;19947;-78
2023/01/17 00:26:01;;;;;;;;;;;;;;;3.53;95.60;98472.94;5098157;28;19924;-78
2023/01/17 01:35:54;;;;;;;;;;;;;;;3.58;93.83;98564.13;5077544;28;19912;-78
2023/01/17 01:38:21;;;;;;;;;;;;;;;3.62;94.28;98568.25;5079421;28;19913;-78
2023/01/17 01:40:47;;;;;;;;;;;;;;;3.64;94.80;98563.84;5080768;28;20199;-78
2023/01/17 01:43:13;;;;;;;;;;;;;;;3.67;95.10;98571.44;5081481;28;20093;-78
2023/01/17 01:45:41;;;;;;;;;;;;;;;3.69;95.27;98582.56;5080584;28;19959;-78
2023/01/17 01:48:30;;;;;;;;;;;;;;;3.71;95.47;98583.34;5081397;28;19908;-78
2023/01/17 01:50:55;;;;;;;;;;;;;;;3.73;95.78;98583.25;5071401;28;20262;-78
2023/01/17 01:53:21;;;;;;;;;;;;;;;3.72;95.80;98586.78;5081109;28;19920;-79
2023/01/17 01:55:48;;;;;;;;;;;;;;;3.72;96.01;98587.59;5079318;28;19958;-78
2023/01/17 01:58:21;;;;;;;;;;;;;;;3.72;96.03;98587.59;5081177;28;19967;-78
2023/01/17 02:03:50;;;;;;;;;;;;;;;3.70;95.86;98586.00;5098511;28;20166;-78
2023/01/17 02:06:19;;;;;;;;;;;;;;;3.69;95.82;98592.09;5102895;28;19912;-78
2023/01/17 02:08:44;;;;;;;;;;;;;;;3.67;95.94;98591.31;5101119;28;19983;-78
2023/01/17 02:11:10;;;;;;;;;;;;;;;3.65;95.77;98588.81;5100817;28;20123;-78
2023/01/17 02:13:35;;;;;;;;;;;;;;;3.63;95.53;98591.47;5100370;28;19931;-78
2023/01/17 02:16:09;;;;;;;;;;;;;;;3.62;95.53;98594.13;5101115;28;19923;-78
2023/01/17 02:18:38;;;;;;;;;;;;;;;3.60;95.50;98595.94;5099224;28;20177;-78
2023/01/17 02:21:11;;;;;;;;;;;;;;;3.58;95.54;98596.00;5101290;28;19908;-78
2023/01/17 02:23:47;;;;;;;;;;;;;;;3.58;95.60;98603.78;5100197;28;19914;-78
2023/01/17 02:26:13;;;;;;;;;;;;;;;3.56;95.57;98600.44;5100623;28;19924;-78
2023/01/17 02:28:49;;;;;;;;;;;;;;;3.55;95.79;98606.53;5100453;28;19908;-78
2023/01/17 02:31:23;;;;;;;;;;;;;;;3.55;95.79;98611.72;5101332;28;19924;-78
2023/01/17 02:33:57;;;;;;;;;;;;;;;3.54;95.82;98614.38;5100571;28;19967;-78
2023/01/17 02:36:28;;;;;;;;;;;;;;;3.56;96.01;98609.97;5100330;28;19931;-78
2023/01/17 02:39:02;;;;;;;;;;;;;;;3.55;96.02;98619.47;5100311;28;20226;-78
2023/01/17 02:41:39;;;;;;;;;;;;;;;3.54;96.11;98625.56;5100207;28;19949;-78
2023/01/17 02:44:07;;;;;;;;;;;;;;;3.54;96.05;98628.13;5100648;28;20073;-78
2023/01/17 02:46:32;;;;;;;;;;;;;;;3.51;95.03;98627.44;5100333;28;19923;-78
2023/01/17 02:48:57;;;;;;;;;;;;;;;3.50;94.91;98621.44;5082046;28;19912;-78
2023/01/17 02:51:37;;;;;;;;;;;;;;;3.49;95.30;98616.34;5099869;28;19939;-78
2023/01/17 02:54:21;;;;;;;;;;;;;;;3.48;95.42;98609.50;5100624;28;19923;-78
2023/01/17 02:57:12;;;;;;;;;;;;;;;3.47;95.22;98613.81;5099667;28;19916;-78
2023/01/17 02:59:52;;;;;;;;;;;;;;;3.48;95.42;98614.66;5099962;28;19916;-78
2023/01/17 03:02:26;;;;;;;;;;;;;;;3.49;95.73;98618.91;5100187;28;19916;-78
2023/01/17 03:05:03;;;;;;;;;;;;;;;3.49;96.07;98617.16;5100166;28;20259;-78
2023/01/17 03:07:30;;;;;;;;;;;;;;;3.51;96.35;98614.50;5100085;28;20085;-78
2023/01/17 03:09:58;;;;;;;;;;;;;;;3.53;96.48;98617.84;5099669;28;20119;-78
2023/01/17 03:12:28;;;;;;;;;;;;;;;3.51;96.35;98617.09;5099667;28;19923;-78
2023/01/17 03:14:53;;;;;;;;;;;;;;;3.49;96.27;98617.16;5099601;28;20182;-78
2023/01/17 03:17:18;;;;;;;;;;;;;;;3.48;96.27;98618.09;5099816;28;19995;-78
2023/01/17 03:19:43;;;;;;;;;;;;;;;3.46;96.15;98625.91;5099718;28;19928;-78
2023/01/17 03:22:09;;;;;;;;;;;;;;;3.44;95.96;98625.16;5099936;28;19912;-78
2023/01/17 03:24:34;;;;;;;;;;;;;;;3.44;95.93;98630.34;5099264;28;19923;-78
2023/01/17 03:26:59;;;;;;;;;;;;;;;3.42;95.88;98620.94;5098073;28;20242;-78
2023/01/17 03:29:24;;;;;;;;;;;;;;;3.40;95.90;98628.81;5099487;28;20196;-78
2023/01/17 03:31:50;;;;;;;;;;;;;;;3.38;95.92;98620.25;5099543;28;20196;-78
2023/01/17 03:34:15;;;;;;;;;;;;;;;3.36;95.80;98621.25;5099557;28;19915;-78
2023/01/17 03:36:40;;;;;;;;;;;;;;;3.35;95.65;98623.00;5098840;28;19965;-78
2023/01/17 03:39:05;;;;;;;;;;;;;;;3.34;95.87;98623.06;5099454;28;19949;-78
2023/01/17 03:41:31;;;;;;;;;;;;;;;3.36;95.98;98621.25;5098978;28;19923;-78
2023/01/17 03:43:56;;;;;;;;;;;;;;;3.35;96.21;98627.34;5080828;28;19920;-78
2023/01/17 03:46:26;;;;;;;;;;;;;;;3.34;96.40;98629.06;5099294;28;19947;-78
2023/01/17 03:48:51;;;;;;;;;;;;;;;3.35;96.34;98627.34;5099037;28;19920;-78
2023/01/17 03:51:16;;;;;;;;;;;;;;;3.34;96.49;98629.06;5099357;28;20256;-78
2023/01/17 03:53:43;;;;;;;;;;;;;;;3.33;96.58;98635.19;5099185;28;19920;-78
2023/01/17 03:56:08;;;;;;;;;;;;;;;3.33;96.56;98635.19;5099133;28;20207;-77
2023/01/17 03:58:34;;;;;;;;;;;;;;;3.31;96.48;98643.91;5096729;28;19916;-77
2023/01/17 04:00:59;;;;;;;;;;;;;;;3.30;96.34;98644.81;5097768;28;20227;-77
2023/01/17 04:03:24;;;;;;;;;;;;;;;3.29;96.49;98645.72;5096990;28;19938;-77
2023/01/17 04:05:50;;;;;;;;;;;;;;;3.26;96.43;98641.53;5097706;28;19919;-77
2023/01/17 04:08:15;;;;;;;;;;;;;;;3.23;96.37;98645.09;5098248;28;19912;-77
2023/01/17 04:10:40;;;;;;;;;;;;;;;3.22;96.30;98640.84;5097589;28;20281;-77
2023/01/17 04:13:05;;;;;;;;;;;;;;;3.21;96.10;98646.06;5079818;28;19927;-77
2023/01/17 04:15:31;;;;;;;;;;;;;;;3.19;96.13;98653.91;5097691;28;19928;-77
2023/01/17 04:17:57;;;;;;;;;;;;;;;3.18;96.19;98647.03;5098033;28;19924;-77
2023/01/17 04:20:29;;;;;;;;;;;;;;;3.16;96.03;98651.44;5097903;28;19943;-77
2023/01/17 04:22:55;;;;;;;;;;;;;;;3.15;96.06;98654.97;5097709;28;19911;-77
2023/01/17 04:25:20;;;;;;;;;;;;;;;3.14;95.89;98653.25;5097805;28;20196;-77
2023/01/17 04:27:45;;;;;;;;;;;;;;;3.13;95.91;98655.91;5096122;28;20192;-77
2023/01/17 04:30:11;;;;;;;;;;;;;;;3.11;96.03;98658.59;5097968;28;20103;-77
2023/01/17 04:32:36;;;;;;;;;;;;;;;3.10;95.95;98650.91;5097397;28;20085;-77
2023/01/17 04:35:03;;;;;;;;;;;;;;;3.08;95.97;98654.38;5086351;28;19924;-77
2023/01/17 04:37:28;;;;;;;;;;;;;;;3.08;95.97;98656.97;5077559;28;20330;-77
2023/01/17 04:39:53;;;;;;;;;;;;;;;3.07;96.04;98652.72;5076017;28;19931;-77
2023/01/17 04:42:19;;;;;;;;;;;;;;;3.04;95.71;98652.84;5077208;28;19982;-77
2023/01/17 04:44:44;;;;;;;;;;;;;;;2.99;92.49;98646.22;5077089;28;19912;-77
2023/01/17 04:47:09;;;;;;;;;;;;;;;2.90;91.43;98654.38;5077329;28;19920;-77
2023/01/17 04:49:35;;;;;;;;;;;;;;;2.89;92.02;98653.50;5076944;28;19977;-77
2023/01/17 04:52:00;;;;;;;;;;;;;;;2.85;92.04;98652.81;5059602;28;19912;-77
2023/01/17 04:54:25;;;;;;;;;;;;;;;2.83;92.58;98652.03;5077073;28;19919;-77
2023/01/17 04:56:50;;;;;;;;;;;;;;;2.84;93.39;98652.91;5076724;28;19925;-77
2023/01/17 04:59:16;;;;;;;;;;;;;;;2.85;93.45;98651.97;5077237;28;19952;-77
2023/01/17 05:01:41;;;;;;;;;;;;;;;2.84;93.23;98652.91;5076830;28;19955;-77
2023/01/17 05:04:06;;;;;;;;;;;;;;;2.84;93.59;98661.50;5077344;28;19943;-77
2023/01/17 05:06:31;;;;;;;;;;;;;;;2.85;94.23;98665.75;5077199;28;19913;-77
2023/01/17 05:08:57;;;;;;;;;;;;;;;2.88;94.50;98664.78;5075941;28;19928;-77
2023/01/17 05:11:23;;;;;;;;;;;;;;;2.89;94.51;98674.19;5077165;28;19980;-77
2023/01/17 05:13:48;;;;;;;;;;;;;;;2.92;94.75;98668.91;5080070;28;20200;-77
2023/01/17 05:16:16;;;;;;;;;;;;;;;2.94;94.93;98669.66;5080203;28;19983;-77
2023/01/17 05:18:41;;;;;;;;;;;;;;;2.93;94.59;98674.91;5080662;28;19912;-77
2023/01/17 05:21:06;;;;;;;;;;;;;;;2.94;94.97;98684.34;5081126;28;19916;-77
2023/01/17 05:23:32;;;;;;;;;;;;;;;2.93;94.97;98683.53;5081028;28;20211;-77
2023/01/17 05:25:57;;;;;;;;;;;;;;;2.95;95.20;98689.47;5081118;28;19983;-77
2023/01/17 05:28:22;;;;;;;;;;;;;;;2.95;95.36;98689.47;5080620;28;19921;-77
2023/01/17 05:30:47;;;;;;;;;;;;;;;2.96;95.61;98691.13;5080559;28;19920;-77
2023/01/17 05:33:13;;;;;;;;;;;;;;;2.97;95.91;98698.00;5080947;28;19913;-77
2023/01/17 05:35:38;;;;;;;;;;;;;;;2.99;96.12;98701.34;5062284;28;19927;-77
2023/01/17 05:38:03;;;;;;;;;;;;;;;2.98;96.01;98697.06;5079496;28;19977;-77
2023/01/17 05:40:30;;;;;;;;;;;;;;;2.97;95.69;98699.75;5080954;28;19987;-77
2023/01/17 05:42:56;;;;;;;;;;;;;;;2.97;95.86;98700.56;5080120;28;19940;-77
2023/01/17 05:45:22;;;;;;;;;;;;;;;2.97;96.05;98698.00;5080718;28;19966;-77
2023/01/17 05:47:49;;;;;;;;;;;;;;;2.96;96.29;98701.47;5080419;28;19921;-77
2023/01/17 05:50:16;;;;;;;;;;;;;;;2.97;96.26;98704.91;5080747;28;20142;-77
2023/01/17 05:52:47;;;;;;;;;;;;;;;2.95;96.09;98704.13;5080531;28;19920;-77
2023/01/17 05:55:12;;;;;;;;;;;;;;;2.94;95.84;98705.88;5080639;28;19916;-77
2023/01/17 05:57:38;;;;;;;;;;;;;;;2.94;96.09;98705.88;5079517;28;19974;-77
2023/01/17 06:00:03;;;;;;;;;;;;;;;2.87;94.04;98710.50;5080297;28;19951;-77
2023/01/17 06:02:28;;;;;;;;;;;;;;;2.85;94.32;98711.44;5080317;28;19935;-77
2023/01/17 06:04:54;;;;;;;;;;;;;;;2.82;94.06;98706.38;5080058;28;19913;-77
2023/01/17 06:07:19;;;;;;;;;;;;;;;2.80;93.77;98708.22;5079133;28;19943;-77
2023/01/17 06:09:44;;;;;;;;;;;;;;;2.76;92.55;98720.44;5079706;28;20344;-77
2023/01/17 06:12:10;;;;;;;;;;;;;;;2.73;92.90;98709.38;5080125;28;19912;-77
2023/01/17 06:14:35;;;;;;;;;;;;;;;2.72;93.32;98713.72;5079551;28;19935;-77
2023/01/17 06:17:01;;;;;;;;;;;;;;;2.70;93.40;98710.34;5080162;28;19923;-77
2023/01/17 06:19:26;;;;;;;;;;;;;;;2.70;93.79;98718.13;5080067;28;19920;-77
2023/01/17 06:21:51;;;;;;;;;;;;;;;2.61;89.59;98718.50;5079697;28;19995;-77
2023/01/17 06:24:16;;;;;;;;;;;;;;;2.59;89.53;98717.72;5077697;28;19920;-77
2023/01/17 06:26:42;;;;;;;;;;;;;;;2.55;88.98;98723.91;5079693;28;19928;-77
2023/01/17 06:29:09;;;;;;;;;;;;;;;2.54;89.50;98717.06;5079854;28;19924;-77
2023/01/17 06:31:34;;;;;;;;;;;;;;;2.52;89.96;98724.06;5079356;28;20162;-77
2023/01/17 06:34:03;;;;;;;;;;;;;;;2.51;90.74;98720.63;5079829;28;19970;-77
2023/01/17 06:36:28;;;;;;;;;;;;;;;2.52;91.50;98716.31;5079435;28;19917;-77
2023/01/17 06:38:54;;;;;;;;;;;;;;;2.54;92.16;98714.50;5079601;28;19920;-77
2023/01/17 06:41:19;;;;;;;;;;;;;;;2.56;92.62;98707.50;5079771;28;19924;-77
2023/01/17 06:43:44;;;;;;;;;;;;;;;2.59;93.19;98707.38;5078798;28;19920;-77
2023/01/17 06:46:09;;;;;;;;;;;;;;;2.61;93.51;98715.91;5079619;28;19926;-77
2023/01/17 06:48:35;;;;;;;;;;;;;;;2.63;93.80;98717.53;5088679;28;19924;-77
2023/01/17 06:51:00;;;;;;;;;;;;;;;2.65;93.65;98720.03;5100172;28;19920;-77
2023/01/17 06:53:25;;;;;;;;;;;;;;;2.63;93.39;98714.94;5098515;28;19920;-77
2023/01/17 06:55:53;;;;;;;;;;;;;;;2.64;93.71;98711.47;5099513;28;20216;-77
2023/01/17 06:58:19;;;;;;;;;;;;;;;2.64;93.96;98724.38;5099405;28;19919;-77
2023/01/17 07:00:44;;;;;;;;;;;;;;;2.63;94.13;98717.53;5098872;28;20227;-77
2023/01/17 07:03:20;;;;;;;;;;;;;;;2.64;94.10;98715.78;5099047;28;20200;-77
2023/01/17 07:05:46;;;;;;;;;;;;;;;2.64;94.23;98720.97;5098721;28;20032;-77
2023/01/17 07:08:11;;;;;;;;;;;;;;;2.61;94.41;98721.91;5099546;28;19916;-77
2023/01/17 07:10:36;;;;;;;;;;;;;;;2.62;94.47;98722.75;5089283;28;20176;-77
2023/01/17 07:13:01;;;;;;;;;;;;;;;2.62;94.64;98725.34;5085805;28;19935;-77
2023/01/17 07:15:27;;;;;;;;;;;;;;;2.61;94.68;98726.25;5092111;28;20175;-77
2023/01/17 07:17:52;;;;;;;;;;;;;;;2.59;94.81;98723.72;5087603;28;19965;-77
2023/01/17 07:20:17;;;;;;;;;;;;;;;2.60;94.83;98729.72;5087008;28;20241;-77
2023/01/17 07:22:43;;;;;;;;;;;;;;;2.58;94.74;98723.78;5096470;28;19992;-77
2023/01/17 07:25:08;;;;;;;;;;;;;;;2.56;94.75;98723.84;5082817;28;20153;-77
2023/01/17 07:27:34;;;;;;;;;;;;;;;2.55;94.68;98724.78;5090302;28;19924;-77
2023/01/17 07:29:59;;;;;;;;;;;;;;;2.53;94.70;98724.00;5087123;28;19948;-77
2023/01/17 07:32:25;;;;;;;;;;;;;;;2.52;94.72;98730.06;5098369;28;19916;-77
2023/01/17 07:34:50;;;;;;;;;;;;;;;2.52;94.84;98726.63;5097037;28;20131;-77
2023/01/17 07:37:15;;;;;;;;;;;;;;;2.50;94.78;98727.53;5074909;28;19995;-77
2023/01/17 07:39:41;;;;;;;;;;;;;;;2.49;94.75;98725.00;5086214;28;20266;-77
2023/01/17 07:42:06;;;;;;;;;;;;;;;2.47;94.62;98729.41;5080671;28;20212;-77
2023/01/17 07:44:33;;;;;;;;;;;;;;;2.44;94.61;98726.97;5078654;28;20425;-77
2023/01/17 07:46:59;;;;;;;;;;;;;;;2.43;94.47;98733.84;5088070;28;19913;-77
2023/01/17 07:49:24;;;;;;;;;;;;;;;2.41;94.47;98738.25;5084050;28;19927;-77
2023/01/17 07:51:49;;;;;;;;;;;;;;;2.39;94.42;98744.38;5077862;28;19919;-77
2023/01/17 07:54:14;;;;;;;;;;;;;;;2.38;94.50;98746.13;5076888;28;19948;-77
2023/01/17 07:56:44;;;;;;;;;;;;;;;2.35;94.52;98746.25;5077365;28;19927;-77
2023/01/17 07:59:09;;;;;;;;;;;;;;;2.34;94.43;98743.72;5077787;28;19931;-77
2023/01/17 08:01:34;;;;;;;;;;;;;;;2.31;94.44;98744.72;5073793;28;20106;-77
2023/01/17 08:04:00;;;;;;;;;;;;;;;2.29;94.42;98742.19;5088814;28;19926;-77
2023/01/17 08:06:25;;;;;;;;;;;;;;;2.29;94.41;98744.75;5094651;28;20231;-77
2023/01/17 08:08:53;;;;;;;;;;;;;;;2.28;94.38;98747.41;5088354;28;19920;-77
2023/01/17 08:11:19;;;;;;;;;;;;;;;2.26;94.45;98737.13;5089364;28;19916;-77
2023/01/17 08:13:44;;;;;;;;;;;;;;;2.26;94.49;98744.88;5086534;28;19921;-77
2023/01/17 08:16:10;;;;;;;;;;;;;;;2.25;94.72;98747.53;5087986;28;19924;-77
2023/01/17 08:18:35;;;;;;;;;;;;;;;2.24;94.89;98751.03;5088119;28;20120;-77
2023/01/17 08:21:01;;;;;;;;;;;;;;;2.24;94.80;98748.44;5085321;28;19916;-77
2023/01/17 08:23:26;;;;;;;;;;;;;;;2.22;94.89;98750.22;5086748;28;20177;-77
2023/01/17 08:25:51;;;;;;;;;;;;;;;2.20;94.82;98742.56;5086634;28;19948;-77
2023/01/17 08:28:18;;;;;;;;;;;;;;;2.20;94.82;98745.13;5082451;28;19954;-77
2023/01/17 08:30:44;;;;;;;;;;;;;;;2.18;94.97;98741.75;5090574;28;19943;-77
2023/01/17 08:33:09;;;;;;;;;;;;;;;2.18;95.02;98739.16;5094622;28;19920;-77
2023/01/17 08:35:34;;;;;;;;;;;;;;;2.19;95.12;98740.03;5096925;28;20174;-77
2023/01/17 08:38:03;;;;;;;;;;;;;;;2.20;95.45;98742.56;5097577;28;19916;-77
2023/01/17 08:40:29;;;;;;;;;;;;;;;2.20;95.45;98745.13;5096709;28;19983;-77
2023/01/17 08:42:55;;;;;;;;;;;;;;;2.21;95.58;98745.97;5094201;28;19916;-77
2023/01/17 08:45:20;;;;;;;;;;;;;;;2.20;95.66;98746.84;5087226;28;19915;-77
2023/01/17 08:47:45;;;;;;;;;;;;;;;2.20;96.00;98744.28;5095817;28;20120;-77
2023/01/17 08:50:11;;;;;;;;;;;;;;;2.20;96.02;98750.31;5097062;28;19951;-77
2023/01/17 08:52:36;;;;;;;;;;;;;;;2.20;96.22;98744.28;5096417;28;20146;-77
2023/01/17 08:55:01;;;;;;;;;;;;;;;2.21;96.20;98740.81;5097138;28;19954;-78
2023/01/17 08:57:27;;;;;;;;;;;;;;;2.22;96.33;98740.75;5096404;28;19924;-77
2023/01/17 08:59:52;;;;;;;;;;;;;;;2.23;96.30;98750.16;5095453;28;20084;-77
2023/01/17 09:02:18;;;;;;;;;;;;;;;2.25;96.42;98753.50;5096044;28;19949;-77
2023/01/17 09:04:44;;;;;;;;;;;;;;;2.27;96.76;98754.31;5095434;28;19956;-77
2023/01/17 09:07:09;;;;;;;;;;;;;;;2.28;96.82;98753.41;5093399;28;19982;-77
2023/01/17 09:09:34;;;;;;;;;;;;;;;2.29;96.87;98757.69;5095558;28;19912;-77
2023/01/17 09:11:59;;;;;;;;;;;;;;;2.30;97.13;98753.34;5094990;28;19956;-77
2023/01/17 09:14:25;;;;;;;;;;;;;;;2.32;97.26;98751.53;5093750;28;20003;-77
2023/01/17 09:16:50;;;;;;;;;;;;;;;2.33;97.49;98763.56;5096855;28;19928;-77
2023/01/17 09:19:15;;;;;;;;;;;;;;;2.34;97.66;98765.22;5097483;28;20203;-77
2023/01/17 09:21:41;;;;;;;;;;;;;;;2.36;97.77;98763.41;5096520;28;19979;-77
2023/01/17 09:24:06;;;;;;;;;;;;;;;2.36;97.71;98768.59;5096372;28;20080;-77
2023/01/17 09:26:31;;;;;;;;;;;;;;;2.38;98.05;98765.94;5096693;28;19943;-77
2023/01/17 09:28:57;;;;;;;;;;;;;;;2.39;98.10;98773.63;5096155;28;19912;-77
2023/01/17 09:31:23;;;;;;;;;;;;;;;2.40;98.31;98772.75;5097199;28;19965;-77
2023/01/17 09:33:49;;;;;;;;;;;;;;;2.41;98.33;98776.16;5096874;28;20009;-77
2023/01/17 09:36:14;;;;;;;;;;;;;;;2.41;98.58;98779.59;5095960;28;19923;-77
2023/01/17 09:38:40;;;;;;;;;;;;;;;2.42;98.58;98783.84;5096357;28;19924;-77
2023/01/17 09:41:26;;;;;;;;;;;;;;;2.43;98.98;98782.94;5096655;28;19926;-77
2023/01/17 09:43:59;;;;;;;;;;;;;;;2.43;98.81;98788.09;5094997;28;20248;-77
2023/01/17 09:46:27;;;;;;;;;;;;;;;2.44;98.71;98787.22;5091354;28;20135;-77
2023/01/17 09:48:59;;;;;;;;;;;;;;;2.45;98.85;98783.72;5093683;28;19964;-77
2023/01/17 09:51:24;;;;;;;;;;;;;;;2.45;98.93;98783.72;5096898;28;20204;-77
2023/01/17 09:53:51;;;;;;;;;;;;;;;2.47;98.99;98783.66;5096181;28;19916;-77
2023/01/17 09:56:36;;;;;;;;;;;;;;;2.47;99.12;98796.56;5096262;28;19916;-77
2023/01/17 09:59:37;;;;;;;;;;;;;;;2.51;99.26;98805.91;5093104;28;19923;-77
2023/01/17 10:02:05;;;;;;;;;;;;;;;2.49;99.28;98795.63;5077505;28;19976;-77
2023/01/17 10:04:50;;;;;;;;;;;;;;;2.52;99.21;98811.91;5094210;28;19909;-77
2023/01/17 10:07:18;;;;;;;;;;;;;;;2.53;99.22;98804.09;5091019;28;19920;-77
2023/01/17 10:09:44;;;;;;;;;;;;;;;2.53;99.33;98809.28;5099652;28;19969;-77
2023/01/17 10:12:17;;;;;;;;;;;;;;;2.55;99.54;98804.00;5098612;28;19916;-77
2023/01/17 10:15:06;;;;;;;;;;;;;;;2.56;99.59;98808.28;5091836;28;20239;-77
2023/01/17 10:17:43;;;;;;;;;;;;;;;2.57;99.85;98808.25;5038567;28;20206;-77
2023/01/17 10:20:18;;;;;;;;;;;;;;;2.59;99.99;98809.00;5059882;28;20266;-77
2023/01/17 10:22:50;;;;;;;;;;;;;;;2.60;100.00;98808.13;5059172;28;20223;-77
2023/01/17 10:25:24;;;;;;;;;;;;;;;2.63;100.00;98820.06;5059682;28;20191;-77
2023/01/17 10:27:52;;;;;;;;;;;;;;;2.63;100.00;98817.47;5058064;28;19958;-77
2023/01/17 10:30:33;;;;;;;;;;;;;;;2.64;100.00;98817.44;5057731;28;19917;-77
2023/01/17 10:33:01;;;;;;;;;;;;;;;2.66;100.00;98817.38;5058165;28;19974;-77
2023/01/17 10:35:29;;;;;;;;;;;;;;;2.66;100.00;98812.19;5058043;28;19916;-77
2023/01/17 10:37:55;;;;;;;;;;;;;;;2.67;100.00;98819.91;5058709;28;19913;-77
2023/01/17 10:40:26;;;;;;;;;;;;;;;2.70;100.00;98816.34;5058567;28;19917;-77
2023/01/17 10:42:56;;;;;;;;;;;;;;;2.71;100.00;98817.16;5056022;28;20256;-77
2023/01/17 10:45:29;;;;;;;;;;;;;;;2.72;100.00;98814.53;5058970;28;19940;-77
2023/01/17 10:48:00;;;;;;;;;;;;;;;2.73;100.00;98823.09;5057486;28;20122;-77
2023/01/17 10:50:27;;;;;;;;;;;;;;;2.72;100.00;98819.69;5059411;28;20005;-77
2023/01/17 10:53:21;;;;;;;;;;;;;;;2.74;100.00;98819.63;5058605;28;20218;-77
2023/01/17 10:55:47;;;;;;;;;;;;;;;2.74;100.00;98815.28;5058182;28;19971;-77
2023/01/17 10:58:12;;;;;;;;;;;;;;;2.76;100.00;98821.25;5058694;28;19924;-77
2023/01/17 11:00:56;;;;;;;;;;;;;;;2.77;100.00;98816.94;5058312;28;19909;-77
2023/01/17 11:03:22;;;;;;;;;;;;;;;2.78;100.00;98813.44;5059050;28;19976;-77
2023/01/17 11:06:07;;;;;;;;;;;;;;;2.80;100.00;98814.19;5057441;28;20097;-77
2023/01/17 11:08:49;;;;;;;;;;;;;;;2.79;99.93;98818.53;5056440;28;19939;-77
2023/01/17 11:11:15;;;;;;;;;;;;;;;2.80;100.00;98807.31;5055568;28;19916;-77
2023/01/17 11:13:40;;;;;;;;;;;;;;;2.79;99.52;98815.13;5057984;28;19923;-77
2023/01/17 11:16:15;;;;;;;;;;;;;;;2.79;98.17;98815.13;5080317;28;19928;-77
2023/01/17 11:18:40;;;;;;;;;;;;;;;2.68;91.64;98815.56;5098471;28;20183;-77
2023/01/17 11:21:20;;;;;;;;;;;;;;;2.65;87.22;98821.66;5098614;28;19989;-77
2023/01/17 11:23:50;;;;;;;;;;;;;;;2.67;90.64;98824.19;5096052;28;19908;-77
2023/01/17 11:26:23;;;;;;;;;;;;;;;2.63;87.64;98807.97;5095946;28;20211;-77
2023/01/17 11:28:50;;;;;;;;;;;;;;;2.60;82.66;98815.00;5096038;28;19958;-77
2023/01/17 11:31:15;;;;;;;;;;;;;;;2.58;82.84;98815.06;5093725;28;19965;-77
2023/01/17 11:33:47;;;;;;;;;;;;;;;2.58;83.77;98809.06;5096655;28;19951;-77
2023/01/17 11:36:17;;;;;;;;;;;;;;;2.60;85.54;98809.84;5094672;28;19948;-77
2023/01/17 11:39:02;;;;;;;;;;;;;;;2.63;87.30;98817.47;5089458;28;20174;-77
2023/01/17 11:41:38;;;;;;;;;;;;;;;2.61;82.93;98811.53;5095107;28;19916;-77
2023/01/17 11:44:19;;;;;;;;;;;;;;;2.60;82.74;98807.25;5092423;28;20317;-77
2023/01/17 11:46:45;;;;;;;;;;;;;;;2.59;81.34;98806.44;5097281;28;20206;-77
2023/01/17 11:49:20;;;;;;;;;;;;;;;2.59;80.98;98808.19;5097696;28;19949;-77
2023/01/17 11:51:46;;;;;;;;;;;;;;;2.61;83.08;98806.38;5096141;28;19946;-77
2023/01/17 11:54:22;;;;;;;;;;;;;;;2.60;80.97;98812.44;5097665;28;19943;-77
2023/01/17 11:56:49;;;;;;;;;;;;;;;2.59;80.78;98801.25;5097069;28;20221;-77
2023/01/17 11:59:22;;;;;;;;;;;;;;;2.59;80.39;98803.00;5097488;28;19942;-77
2023/01/17 12:01:47;;;;;;;;;;;;;;;2.59;81.15;98803.84;5087808;28;19955;-77
2023/01/17 12:04:22;;;;;;;;;;;;;;;2.61;82.70;98804.63;5096130;28;19916;-77
2023/01/17 12:06:54;;;;;;;;;;;;;;;2.64;83.38;98801.09;5097419;28;20360;-77
2023/01/17 12:09:32;;;;;;;;;;;;;;;2.63;81.07;98795.06;5097512;28;20169;-77
2023/01/17 12:15:00;;;;;;;;;;;;;;;2.69;85.01;98796.53;5083749;28;19943;-77
2023/01/17 12:17:33;;;;;;;;;;;;;;;2.71;84.32;98789.59;5074914;28;19935;-77
2023/01/17 12:20:00;;;;;;;;;;;;;;;2.70;83.02;98785.31;5075689;28;19947;-77
2023/01/17 12:22:40;;;;;;;;;;;;;;;2.73;84.71;98784.34;5087270;28;20158;-77
2023/01/17 12:25:24;;;;;;;;;;;;;;;2.74;83.50;98781.69;5080410;28;19923;-77
2023/01/17 12:28:05;;;;;;;;;;;;;;;2.74;81.99;98781.69;5083237;28;20185;-77
2023/01/17 12:30:48;;;;;;;;;;;;;;;2.78;84.18;98785.00;5094005;28;19920;-77
2023/01/17 12:33:32;;;;;;;;;;;;;;;2.78;83.12;98783.25;5086332;28;19916;-77
2023/01/17 12:36:00;;;;;;;;;;;;;;;2.79;83.37;98782.34;5096701;28;19923;-77
2023/01/17 12:38:29;;;;;;;;;;;;;;;2.81;84.53;98777.13;5084431;28;20027;-77
2023/01/17 12:40:59;;;;;;;;;;;;;;;2.81;83.84;98788.28;5089601;28;19964;-77
2023/01/17 12:43:31;;;;;;;;;;;;;;;2.81;81.16;98783.13;5089037;28;19915;-77
2023/01/17 12:45:58;;;;;;;;;;;;;;;2.80;78.64;98773.69;5087959;28;19927;-76
2023/01/17 12:48:27;;;;;;;;;;;;;;;2.82;79.95;98773.59;5091402;28;19920;-77
2023/01/17 12:51:00;;;;;;;;;;;;;;;2.84;82.70;98779.59;5087992;28;20208;-77
2023/01/17 12:53:30;;;;;;;;;;;;;;;2.87;84.43;98779.44;5090497;28;19912;-76
2023/01/17 12:56:11;;;;;;;;;;;;;;;2.86;80.99;98776.03;5090602;28;20108;-76
2023/01/17 12:58:41;;;;;;;;;;;;;;;2.88;81.17;98775.97;5095752;28;19942;-77
2023/01/17 13:01:17;;;;;;;;;;;;;;;2.88;79.31;98776.78;5094062;28;20227;-77
2023/01/17 13:04:05;;;;;;;;;;;;;;;2.88;77.72;98774.19;5095144;28;19982;-77
2023/01/17 13:06:36;;;;;;;;;;;;;;;2.91;78.96;98777.56;5094546;28;20250;-77
2023/01/17 13:09:03;;;;;;;;;;;;;;;2.92;80.10;98768.91;5086146;28;19943;-77
2023/01/17 13:11:37;;;;;;;;;;;;;;;2.93;80.29;98770.56;5085097;28;20142;-77
2023/01/17 13:14:05;;;;;;;;;;;;;;;2.94;79.21;98764.50;5094036;28;19957;-77
2023/01/17 13:16:59;;;;;;;;;;;;;;;2.95;78.86;98766.16;5095744;28;19954;-77
2023/01/17 13:19:27;;;;;;;;;;;;;;;2.95;78.51;98767.03;5091929;28;19916;-77
2023/01/17 13:21:54;;;;;;;;;;;;;;;2.96;78.79;98766.13;5096218;28;20253;-77
2023/01/17 13:24:34;;;;;;;;;;;;;;;2.98;79.91;98768.63;5090539;28;19920;-77
2023/01/17 13:27:00;;;;;;;;;;;;;;;2.98;77.66;98766.06;5096736;28;20237;-77
2023/01/17 13:29:25;;;;;;;;;;;;;;;2.98;77.86;98773.81;5096426;28;19912;-77
2023/01/17 13:31:55;;;;;;;;;;;;;;;2.97;77.84;98767.81;5096133;28;19908;-77
2023/01/17 13:34:20;;;;;;;;;;;;;;;2.96;76.66;98768.69;5098549;28;19922;-77
2023/01/17 13:37:04;;;;;;;;;;;;;;;2.97;78.17;98778.16;5095805;28;20480;-77
2023/01/17 13:39:45;;;;;;;;;;;;;;;2.98;77.74;98777.22;5096889;28;20370;-77
2023/01/17 13:42:16;;;;;;;;;;;;;;;2.99;77.23;98783.25;5097893;28;20006;-77
2023/01/17 13:44:42;;;;;;;;;;;;;;;2.99;76.55;98788.44;5099731;28;19948;-77
2023/01/17 13:47:28;;;;;;;;;;;;;;;3.00;79.09;98788.38;5100684;28;19950;-77
2023/01/17 13:49:55;;;;;;;;;;;;;;;3.01;78.47;98784.88;5092691;28;19920;-77
2023/01/17 13:52:22;;;;;;;;;;;;;;;3.04;79.84;98791.66;5097783;28;20108;-77
2023/01/17 13:54:57;;;;;;;;;;;;;;;3.05;81.14;98789.00;5099830;28;20323;-77
2023/01/17 13:57:31;;;;;;;;;;;;;;;3.05;80.38;98791.56;5098884;28;20214;-77
2023/01/17 14:00:22;;;;;;;;;;;;;;;3.05;79.61;98786.41;5099547;28;19908;-77
2023/01/17 14:02:48;;;;;;;;;;;;;;;3.08;79.75;98785.47;5099511;28;19930;-77
2023/01/17 14:05:14;;;;;;;;;;;;;;;3.08;78.46;98793.22;5096464;28;19916;-77
2023/01/17 14:07:48;;;;;;;;;;;;;;;3.08;78.80;98796.63;5090877;28;19928;-77
2023/01/17 14:10:33;;;;;;;;;;;;;;;3.11;80.00;98790.50;5097381;28;19923;-77
2023/01/17 14:13:00;;;;;;;;;;;;;;;3.15;82.61;98796.38;5099407;28;20303;-77
2023/01/17 14:15:26;;;;;;;;;;;;;;;3.13;81.64;98796.44;5099982;28;19993;-77
2023/01/17 14:17:54;;;;;;;;;;;;;;;3.12;77.64;98799.09;5097585;28;20222;-77
2023/01/17 14:20:26;;;;;;;;;;;;;;;3.11;77.95;98806.03;5099487;28;19953;-77
2023/01/17 14:22:53;;;;;;;;;;;;;;;3.12;77.85;98807.69;5099341;28;20000;-77
2023/01/17 14:25:20;;;;;;;;;;;;;;;3.13;78.34;98813.69;5099747;28;20246;-77
2023/01/17 14:27:50;;;;;;;;;;;;;;;3.11;78.04;98807.75;5094769;28;20456;-77
2023/01/17 14:30:15;;;;;;;;;;;;;;;3.12;79.27;98812.03;5096173;28;19927;-77